Aviation weather information 2020-09-25 15:48 UTC

TAF(FCEO32)
FCEO32 EETN 251200
TAF EEKA 251200Z 2513/2519 1200KT 9999 SCT025 TEMPO 2513/2519
     5000 SHRA BKN010 SCT020CB PROB30 TEMPO 2513/2516 TSRA=
FCEO32 EETN 251400
TAF EEKE 251400Z 2515/2521 11012G23KT 9999 SCT040 TEMPO
     2515/2518 SCT030CB=

TAF(FTEO31)
FTEO31 EETN 251100
TAF EETN 251120Z 2512/2612 14010KT CAVOK PROB40 TEMPO 2512/2516
     SCT040CB=

TAF(FTEO33)
FTEO33 EEEI 251130
TAF EEEI 251130Z 2512/2612 12008KT 9999 FEW040 PROB40 TEMPO
     2512/2515 5000 SHRA SCT015 SCT025TCU TEMPO 2606/2612 13011G21KT=
     

Weather observation (METAR/SPECI)
METAR EETN 251520Z 10004KT CAVOK 19/15 Q1007 NOSIG=
METAR EEEI 251450Z 08005KT CAVOK 20/16 Q1006 NOSIG=
METAR EETU 251520Z AUTO 09008KT 9999 NCD 18/12 Q1008=
METAR EEPU 251520Z NIL=
METAR EEKE 251520Z 12008KT CAVOK 18/14 Q1004=
METAR EEKA 251520Z 09003KT 9999 BKN043 16/15 Q1005=